KMCI/MCI METAR and TAF weather

Enter ICAO airport designator
Station Type Date Time Source
KMCI METAR 2021/09/28 14:53 UTC NOAA

KMCI 281453Z 22008KT 10SM FEW170 24/14 A2992 RMK AO2 SLP122 T02440139 51006


Station Type Date Time Source
KMCI Decoded METAR 2021/09/28 14:53 UTC NOAA

KANSAS CITY INTERNATIONAL AIRPORT, MO, United States (KMCI) 39-18N 94-44W 320M
Sep 28, 2021 - 10:53 AM EDT / 2021.09.28 1453 UTC
Wind: from the SW (220 degrees) at 9 MPH (8 KT):0
Visibility: 10 mile(s):0
Sky conditions: mostly clear
Temperature: 75.9 F (24.4 C)
Dew Point: 57.0 F (13.9 C)
Relative Humidity: 51%
Pressure (altimeter): 29.92 in. Hg (1013 hPa)
Pressure tendency: 0.02 inches (0.6 hPa) higher than three hours ago
ob: KMCI 281453Z 22008KT 10SM FEW170 24/14 A2992 RMK AO2 SLP122 T02440139 51006
cycle: 15

Station Type Date Time Source
KMCI TAF 2021/09/28 12:22 UTC NOAA

TAF KMCI 281120Z 2812/2912 18009KT P6SM SCT200

Example: see airport list